Time;durP1;ratioP1;P1;durP2;ratioP2;P2;SDS_P1;SDS_P2;PMS_P1;PMS_P2;Temp;Humidity;BMP_temperature;BMP_pressure;BME280_temperature;BME280_humidity;BME280_pressure;Samples;Min_cycle;Max_cycle;Signal;HPM_P1;HPM_P2
2022/05/30 00:00:40;;;;;;;13.25;8.02;;;;;;;19.38;48.27;101536.47;5080303;28;20828;-47
2022/05/30 00:03:07;;;;;;;14.45;7.43;;;;;;;19.37;48.71;101540.13;5079364;28;20131;-48
2022/05/30 00:05:35;;;;;;;13.07;7.88;;;;;;;19.36;48.55;101535.75;5080529;28;20458;-50
2022/05/30 00:08:02;;;;;;;14.32;8.10;;;;;;;19.36;49.15;101535.75;5077179;28;20140;-49
2022/05/30 00:10:29;;;;;;;15.90;8.18;;;;;;;19.35;48.56;101536.75;5074290;28;20434;-50
2022/05/30 00:12:55;;;;;;;14.45;7.60;;;;;;;19.35;48.49;101537.59;5078029;28;20048;-48
2022/05/30 00:15:23;;;;;;;12.52;6.90;;;;;;;19.34;49.20;101538.59;5078309;28;20051;-50
2022/05/30 00:17:54;;;;;;;12.60;6.82;;;;;;;19.34;48.73;101535.06;5075418;28;20154;-51
2022/05/30 00:20:22;;;;;;;11.30;6.53;;;;;;;19.34;49.08;101537.75;5078846;28;20066;-51
2022/05/30 00:22:48;;;;;;;11.70;6.28;;;;;;;19.33;48.89;101536.03;5083688;28;20050;-51
2022/05/30 00:25:15;;;;;;;13.68;7.10;;;;;;;19.31;49.01;101530.81;5078968;28;20058;-50
2022/05/30 00:27:43;;;;;;;11.23;6.18;;;;;;;19.31;48.80;101528.13;5082116;28;20702;-51
2022/05/30 00:30:11;;;;;;;11.85;7.00;;;;;;;19.29;49.20;101519.34;5080996;28;20062;-51
2022/05/30 00:32:38;;;;;;;12.80;7.00;;;;;;;19.29;48.86;101519.34;5084218;28;20056;-49
2022/05/30 00:35:05;;;;;;;13.10;6.60;;;;;;;19.28;48.65;101512.28;5079181;28;20045;-49
2022/05/30 00:37:32;;;;;;;11.98;6.13;;;;;;;19.27;48.97;101507.91;5077698;28;20450;-51
2022/05/30 00:39:58;;;;;;;13.45;6.63;;;;;;;19.25;48.88;101499.13;5081855;28;20044;-50
2022/05/30 00:42:26;;;;;;;10.70;6.72;;;;;;;19.25;49.35;101507.19;5080228;28;21364;-49
2022/05/30 00:44:54;;;;;;;10.15;5.68;;;;;;;19.25;49.03;101501.81;5077638;28;20047;-51
2022/05/30 00:47:21;;;;;;;10.75;5.50;;;;;;;19.23;48.98;101504.66;5080822;28;20491;-49
2022/05/30 00:49:49;;;;;;;10.85;6.15;;;;;;;19.22;49.00;101504.81;5082121;28;20056;-49
2022/05/30 00:52:20;;;;;;;12.20;6.32;;;;;;;19.20;49.28;101499.56;5078766;28;20097;-49
2022/05/30 00:54:59;;;;;;;10.77;6.03;;;;;;;19.19;48.88;101503.25;5075326;28;20066;-50
2022/05/30 00:57:28;;;;;;;9.18;5.18;;;;;;;19.19;49.15;101494.34;5079541;28;20055;-46
2022/05/30 01:00:01;;;;;;;11.15;5.65;;;;;;;19.18;49.07;101504.25;5079878;28;20285;-48
2022/05/30 01:02:31;;;;;;;9.23;5.18;;;;;;;19.16;49.08;101503.53;5078639;28;20052;-50
2022/05/30 01:07:46;;;;;;;9.60;4.78;;;;;;;19.14;48.81;101508.22;5086020;28;20079;-46
2022/05/30 01:10:17;;;;;;;8.68;5.18;;;;;;;19.13;49.07;101509.19;5082462;28;20044;-51
2022/05/30 01:12:49;;;;;;;9.00;5.32;;;;;;;19.12;49.04;101510.19;5081113;28;20126;-51
2022/05/30 01:15:17;;;;;;;11.07;5.53;;;;;;;19.11;49.26;101508.50;5078798;28;20041;-51
2022/05/30 01:17:54;;;;;;;9.15;4.78;;;;;;;19.10;49.30;101505.97;5080711;28;20045;-51
2022/05/30 01:20:30;;;;;;;9.55;5.10;;;;;;;19.09;49.81;101510.47;5081361;28;20052;-49
2022/05/30 01:23:10;;;;;;;10.07;5.30;;;;;;;19.08;49.43;101500.72;5078313;28;20066;-51
2022/05/30 01:25:43;;;;;;;11.18;5.20;;;;;;;19.07;49.22;101504.41;5080486;28;20054;-52
2022/05/30 01:28:27;;;;;;;9.80;5.28;;;;;;;19.06;48.94;101497.34;5079022;28;20050;-52
2022/05/30 01:30:54;;;;;;;6.93;4.40;;;;;;;19.06;49.19;101497.34;5081175;28;20039;-53
2022/05/30 01:33:21;;;;;;;10.27;4.53;;;;;;;19.06;49.30;101502.72;5082285;28;20591;-50
2022/05/30 01:35:47;;;;;;;7.40;4.68;;;;;;;19.04;49.37;101499.31;5078112;28;20119;-51
2022/05/30 01:38:14;;;;;;;10.98;4.88;;;;;;;19.05;49.02;101492.09;5080808;28;20062;-52
2022/05/30 01:40:40;;;;;;;9.10;4.50;;;;;;;19.03;49.82;101497.63;5075610;28;20075;-52
2022/05/30 01:43:07;;;;;;;9.18;4.57;;;;;;;19.03;49.23;101494.09;5074429;28;20052;-51
2022/05/30 01:45:34;;;;;;;7.38;4.20;;;;;;;19.02;49.39;101495.94;5079943;28;20032;-51
2022/05/30 01:48:01;;;;;;;7.93;4.53;;;;;;;19.02;49.24;101490.56;5077880;28;20056;-51
2022/05/30 01:50:28;;;;;;;8.10;4.25;;;;;;;19.01;48.82;101496.91;5079323;28;20152;-51
2022/05/30 01:52:55;;;;;;;7.10;3.88;;;;;;;19.01;49.39;101491.53;5077295;28;20131;-52
2022/05/30 01:55:21;;;;;;;7.97;4.38;;;;;;;19.00;49.14;101492.53;5079084;28;20640;-52
2022/05/30 01:57:48;;;;;;;6.32;3.75;;;;;;;19.01;49.51;101494.22;5077851;28;20040;-50
2022/05/30 02:00:20;;;;;;;5.60;3.55;;;;;;;19.00;49.04;101489.84;5076670;28;20052;-51
2022/05/30 02:02:47;;;;;;;7.68;3.78;;;;;;;18.99;49.30;101489.00;5074447;28;20048;-50
2022/05/30 02:05:14;;;;;;;9.10;4.15;;;;;;;18.99;49.72;101480.13;5079718;28;20044;-50
2022/05/30 02:07:41;;;;;;;7.80;4.22;;;;;;;19.00;49.20;101487.16;5080857;28;20051;-51
2022/05/30 02:10:08;;;;;;;5.55;3.55;;;;;;;18.98;49.09;101479.28;5078544;28;20051;-47
2022/05/30 02:12:35;;;;;;;7.53;3.80;;;;;;;18.97;49.21;101474.91;5077252;28;20207;-50
2022/05/30 02:15:02;;;;;;;8.35;3.90;;;;;;;18.98;49.10;101478.44;5079508;28;20046;-48
2022/05/30 02:17:32;;;;;;;6.97;3.45;;;;;;;18.97;49.69;101477.59;5075167;28;20050;-52
2022/05/30 02:19:58;;;;;;;4.93;2.75;;;;;;;18.99;49.31;101488.19;5081335;28;20044;-47
2022/05/30 02:22:30;;;;;;;7.78;3.65;;;;;;;18.98;49.36;101479.28;5076862;28;20048;-51
2022/05/30 02:24:57;;;;;;;6.00;3.17;;;;;;;18.97;49.04;101469.53;5076893;28;20331;-47
2022/05/30 02:27:23;;;;;;;5.93;3.95;;;;;;;18.99;49.16;101472.06;5081269;28;20046;-51
2022/05/30 02:29:52;;;;;;;6.93;2.92;;;;;;;19.01;49.40;101472.75;5081160;28;20044;-48
2022/05/30 02:32:19;;;;;;;10.02;3.92;;;;;;;19.00;49.44;101471.06;5074976;28;20122;-51
2022/05/30 02:37:31;;;;;;;7.05;3.45;;;;;;;19.03;49.29;101472.63;5074591;28;20070;-48
2022/05/30 02:39:58;;;;;;;8.10;3.20;;;;;;;19.03;48.89;101464.56;5076819;28;20607;-48
2022/05/30 02:42:25;;;;;;;6.03;3.00;;;;;;;19.04;49.20;101468.94;5078169;28;20036;-48
2022/05/30 02:44:52;;;;;;;4.93;3.00;;;;;;;19.04;48.97;101472.47;5075402;28;20052;-48
2022/05/30 02:47:18;;;;;;;7.15;3.15;;;;;;;19.03;49.04;101473.47;5077346;28;20040;-49
2022/05/30 02:49:45;;;;;;;4.75;2.58;;;;;;;19.04;49.56;101466.25;5076694;28;20044;-50
2022/05/30 02:52:11;;;;;;;4.60;2.70;;;;;;;19.03;49.30;101476.16;5079633;28;20049;-49
2022/05/30 02:54:39;;;;;;;5.47;2.80;;;;;;;19.03;49.14;101470.78;5081859;28;20599;-50
2022/05/30 02:57:06;;;;;;;5.35;2.40;;;;;;;19.05;49.07;101473.31;5076513;28;20054;-47
2022/05/30 02:59:32;;;;;;;4.70;2.45;;;;;;;19.04;48.79;101475.16;5078204;28;20052;-49
2022/05/30 03:01:59;;;;;;;5.80;2.83;;;;;;;19.02;49.08;101474.47;5076449;28;20058;-48
2022/05/30 03:04:25;;;;;;;5.15;2.90;;;;;;;19.03;48.92;101470.78;5079426;28;20060;-47
2022/05/30 03:06:52;;;;;;;4.57;2.63;;;;;;;19.03;49.02;101464.56;5073869;28;20051;-47
2022/05/30 03:09:19;;;;;;;8.60;2.83;;;;;;;19.04;49.19;101471.63;5075637;28;20044;-46
2022/05/30 03:11:46;;;;;;;5.68;2.90;;;;;;;19.01;49.20;101464.69;5079530;28;20062;-50
2022/05/30 03:14:13;;;;;;;4.68;2.78;;;;;;;19.02;48.96;101466.41;5076985;28;20067;-48
2022/05/30 03:16:39;;;;;;;4.75;2.30;;;;;;;19.00;49.37;101465.69;5074320;28;20058;-47
2022/05/30 03:19:06;;;;;;;5.75;2.88;;;;;;;18.99;49.30;101464.00;5080549;28;20335;-48
2022/05/30 03:21:33;;;;;;;5.55;2.90;;;;;;;18.98;49.78;101463.16;5083457;28;20070;-50
2022/05/30 03:23:59;;;;;;;4.20;2.35;;;;;;;18.98;48.99;101463.16;5080400;28;21411;-47
2022/05/30 03:26:26;;;;;;;4.35;2.65;;;;;;;18.98;49.53;101462.31;5083604;28;20040;-51
2022/05/30 03:28:53;;;;;;;7.20;2.78;;;;;;;18.96;49.14;101461.59;5081682;28;20040;-47
2022/05/30 03:31:19;;;;;;;5.15;2.42;;;;;;;18.96;49.26;101464.28;5081981;28;20045;-48
2022/05/30 03:33:46;;;;;;;4.82;2.20;;;;;;;18.94;49.26;101460.91;5082973;28;20320;-49
2022/05/30 03:36:22;;;;;;;3.75;2.10;;;;;;;18.94;49.30;101464.44;5079854;28;20036;-51
2022/05/30 03:39:13;;;;;;;3.78;1.90;;;;;;;18.93;48.82;101465.41;5083477;28;20051;-47
2022/05/30 03:41:39;;;;;;;5.60;2.65;;;;;;;18.92;49.52;101457.50;5079816;28;20059;-52
2022/05/30 03:44:06;;;;;;;6.00;2.75;;;;;;;18.92;49.00;101465.56;5079288;28;20050;-50
2022/05/30 03:46:32;;;;;;;3.63;2.10;;;;;;;18.90;49.09;101476.47;5078903;28;20048;-52
2022/05/30 03:48:59;;;;;;;5.03;2.20;;;;;;;18.90;49.45;101470.25;5078165;28;20492;-50
2022/05/30 03:51:26;;;;;;;3.17;1.92;;;;;;;18.89;49.15;101479.28;5078672;28;20607;-50
2022/05/30 03:53:53;;;;;;;4.47;2.03;;;;;;;18.89;49.22;101477.44;5078639;28;20044;-50
2022/05/30 03:56:20;;;;;;;3.13;2.05;;;;;;;18.88;49.41;101472.22;5078126;28;20135;-52
2022/05/30 03:58:47;;;;;;;3.78;1.98;;;;;;;18.87;49.35;101471.38;5084234;28;20044;-51
2022/05/30 04:01:14;;;;;;;7.53;2.20;;;;;;;18.88;49.34;101469.53;5079774;28;20053;-48
2022/05/30 04:03:41;;;;;;;6.68;2.30;;;;;;;18.88;49.47;101466.84;5080095;28;20049;-48
2022/05/30 04:06:08;;;;;;;11.23;3.28;;;;;;;18.89;49.76;101471.22;5081070;28;20447;-50
2022/05/30 04:08:35;;;;;;;9.23;2.67;;;;;;;18.88;49.55;101461.47;5080902;28;20055;-50
2022/05/30 04:11:02;;;;;;;12.20;3.58;;;;;;;18.88;49.37;101464.16;5075267;28;20044;-50
2022/05/30 04:13:28;;;;;;;6.15;2.92;;;;;;;18.87;49.56;101459.78;5082261;28;20501;-51
2022/05/30 04:15:55;;;;;;;6.88;2.90;;;;;;;18.86;49.13;101466.16;5078545;28;20041;-50
2022/05/30 04:18:24;;;;;;;5.55;2.83;;;;;;;18.87;49.43;101460.63;5079230;28;20123;-50
2022/05/30 04:20:50;;;;;;;7.82;3.15;;;;;;;18.88;49.08;101456.94;5080547;28;20462;-52
2022/05/30 04:23:17;;;;;;;5.65;3.22;;;;;;;18.89;49.35;101461.31;5082065;28;20455;-49
2022/05/30 04:25:43;;;;;;;8.07;3.30;;;;;;;18.91;49.47;101461.19;5079946;28;20049;-49
2022/05/30 04:28:10;;;;;;;9.02;3.53;;;;;;;18.90;49.12;101462.19;5082560;28;20127;-51
2022/05/30 04:30:37;;;;;;;9.20;3.47;;;;;;;18.90;48.89;101463.03;5075518;28;20601;-51
2022/05/30 04:33:03;;;;;;;7.03;3.47;;;;;;;18.91;48.49;101463.88;5076496;28;20068;-50
2022/05/30 04:35:30;;;;;;;6.88;3.08;;;;;;;18.94;48.85;101466.28;5077620;28;20055;-50
2022/05/30 04:37:56;;;;;;;6.97;3.42;;;;;;;18.94;49.11;101469.81;5076594;28;20047;-51
2022/05/30 04:40:23;;;;;;;7.30;3.70;;;;;;;18.94;48.47;101458.22;5077096;28;20044;-48
2022/05/30 04:42:49;;;;;;;7.70;3.53;;;;;;;18.96;48.61;101453.53;5078729;28;20052;-49
2022/05/30 04:45:16;;;;;;;7.20;3.75;;;;;;;18.97;48.36;101458.78;5078353;28;20377;-51
2022/05/30 04:47:43;;;;;;;9.90;3.50;;;;;;;18.98;48.44;101456.94;5076133;28;20131;-46
2022/05/30 04:50:14;;;;;;;6.40;3.85;;;;;;;18.99;48.84;101454.09;5076225;28;20040;-47
2022/05/30 04:52:42;;;;;;;8.43;4.13;;;;;;;19.02;48.39;101465.56;5076499;28;20048;-48
2022/05/30 04:55:10;;;;;;;7.28;3.40;;;;;;;19.03;48.13;101465.41;5075982;28;20045;-48
2022/05/30 04:57:44;;;;;;;8.02;4.05;;;;;;;19.05;48.24;101466.09;5080856;28;20044;-47
2022/05/30 05:00:14;;;;;;;7.43;3.10;;;;;;;19.05;48.97;101460.72;5079194;28;20040;-46
2022/05/30 05:02:40;;;;;;;6.95;3.63;;;;;;;19.07;48.41;101468.66;5079227;28;20056;-46
2022/05/30 05:05:08;;;;;;;9.10;3.67;;;;;;;19.09;48.07;101472.03;5077943;28;20048;-49
2022/05/30 05:07:40;;;;;;;6.90;3.78;;;;;;;19.10;48.30;101469.22;5078799;28;20040;-47
2022/05/30 05:10:41;;;;;;;8.07;4.03;;;;;;;19.12;48.63;101471.72;5074327;28;20053;-46
2022/05/30 05:13:08;;;;;;;7.43;3.35;;;;;;;19.14;48.64;101467.06;5080561;28;20044;-48
2022/05/30 05:15:34;;;;;;;6.57;3.30;;;;;;;19.14;47.86;101473.28;5074706;28;20070;-47
2022/05/30 05:18:02;;;;;;;6.63;3.50;;;;;;;19.14;47.96;101478.66;5074495;28;20362;-47
2022/05/30 05:20:29;;;;;;;6.97;3.78;;;;;;;19.15;47.74;101471.44;5074670;28;20086;-47
2022/05/30 05:22:55;;;;;;;7.93;3.53;;;;;;;19.15;48.17;101472.28;5078194;28;20056;-48
2022/05/30 05:25:22;;;;;;;8.38;3.72;;;;;;;19.16;48.17;101478.50;5076008;28;20051;-47
2022/05/30 05:27:49;;;;;;;6.20;3.45;;;;;;;19.16;47.77;101476.66;5075039;28;20055;-46
2022/05/30 05:30:16;;;;;;;5.93;3.47;;;;;;;19.16;48.45;101475.81;5074026;28;20153;-49
2022/05/30 05:32:42;;;;;;;7.93;3.70;;;;;;;19.16;47.51;101478.50;5079972;28;20132;-47
2022/05/30 05:35:09;;;;;;;6.50;3.42;;;;;;;19.16;48.15;101479.34;5078782;28;20054;-51
2022/05/30 05:37:36;;;;;;;7.00;3.80;;;;;;;19.16;47.92;101482.03;5078104;28;20040;-50
2022/05/30 05:40:03;;;;;;;7.28;3.65;;;;;;;19.15;47.87;101480.34;5076302;28;20132;-48
2022/05/30 05:42:29;;;;;;;8.23;3.85;;;;;;;19.16;48.09;101483.88;5075887;28;20343;-47
2022/05/30 05:44:56;;;;;;;8.60;3.85;;;;;;;19.15;48.11;101480.34;5077515;28;20056;-48
2022/05/30 05:47:23;;;;;;;9.82;3.83;;;;;;;19.15;48.38;101485.72;5078447;28;20361;-46
2022/05/30 05:49:56;;;;;;;7.93;3.63;;;;;;;19.17;47.79;101482.88;5075177;28;20067;-51
2022/05/30 05:52:28;;;;;;;7.78;3.67;;;;;;;19.15;48.50;101479.50;5078273;28;20071;-49
2022/05/30 05:54:55;;;;;;;6.05;3.17;;;;;;;19.17;48.17;101488.25;5078566;28;20297;-49
2022/05/30 05:57:25;;;;;;;5.57;3.30;;;;;;;19.16;48.05;101483.88;5076633;28;20526;-48
2022/05/30 05:59:52;;;;;;;6.07;3.28;;;;;;;19.15;47.60;101485.72;5074870;28;20044;-48
2022/05/30 06:02:19;;;;;;;8.85;3.83;;;;;;;19.16;47.72;101484.72;5079828;28;20039;-50
2022/05/30 06:04:46;;;;;;;7.03;3.40;;;;;;;19.16;48.29;101489.25;5075685;28;20044;-49
2022/05/30 06:07:13;;;;;;;8.45;4.35;;;;;;;19.15;48.14;101485.72;5078117;28;20132;-49
2022/05/30 06:09:39;;;;;;;7.60;3.47;;;;;;;19.16;47.84;101487.41;5078623;28;20076;-52
2022/05/30 06:12:07;;;;;;;6.50;3.20;;;;;;;19.15;47.94;101488.41;5078907;28;20479;-50
2022/05/30 06:14:34;;;;;;;6.95;3.47;;;;;;;19.14;47.45;101488.56;5078126;28;20033;-51
2022/05/30 06:17:01;;;;;;;7.43;3.10;;;;;;;19.14;47.69;101494.78;5077852;28;20036;-51
2022/05/30 06:19:27;;;;;;;7.95;3.45;;;;;;;19.14;47.91;101493.94;5076969;28;20071;-51
2022/05/30 06:21:54;;;;;;;5.75;3.00;;;;;;;19.14;47.42;101494.78;5078719;28;20054;-50
2022/05/30 06:24:21;;;;;;;5.15;3.33;;;;;;;19.14;48.28;101494.78;5076309;28;20426;-49
2022/05/30 06:26:47;;;;;;;5.68;2.70;;;;;;;19.14;48.19;101489.41;5076650;28;20040;-50
2022/05/30 06:29:14;;;;;;;6.00;3.20;;;;;;;19.15;47.58;101501.00;5076361;28;20046;-47
2022/05/30 06:31:41;;;;;;;7.00;3.47;;;;;;;19.14;47.35;101494.78;5076996;28;20048;-47
2022/05/30 06:34:08;;;;;;;6.13;3.25;;;;;;;19.16;47.96;101502.69;5077843;28;20048;-51
2022/05/30 06:36:35;;;;;;;6.93;3.45;;;;;;;19.16;47.50;101500.00;5071071;28;20043;-51
2022/05/30 06:39:02;;;;;;;5.63;3.00;;;;;;;19.15;47.91;101496.47;5076880;28;20061;-49
2022/05/30 06:41:31;;;;;;;5.18;3.05;;;;;;;19.16;47.34;101500.00;5076746;28;20056;-49
2022/05/30 06:44:02;;;;;;;5.72;2.97;;;;;;;19.17;47.51;101504.38;5077201;28;20411;-51
2022/05/30 06:46:29;;;;;;;5.90;2.97;;;;;;;19.17;48.04;101504.38;5073673;28;20037;-48
2022/05/30 06:48:56;;;;;;;7.30;3.30;;;;;;;19.16;47.69;101503.53;5077044;28;20048;-52
2022/05/30 06:51:25;;;;;;;7.13;3.60;;;;;;;19.17;47.68;101505.22;5076699;28;20097;-49
2022/05/30 06:53:53;;;;;;;6.70;3.40;;;;;;;19.17;47.65;101505.22;5077823;28;20071;-47
2022/05/30 06:56:25;;;;;;;4.40;2.60;;;;;;;19.18;47.20;101503.41;5078212;28;20051;-51
2022/05/30 06:58:53;;;;;;;5.13;2.83;;;;;;;19.18;47.33;101498.03;5073383;28;20082;-49
2022/05/30 07:01:23;;;;;;;7.18;3.03;;;;;;;19.18;47.31;101504.25;5077477;28;21493;-49
2022/05/30 07:03:49;;;;;;;6.18;3.00;;;;;;;19.18;47.37;101504.25;5078157;28;20040;-49
2022/05/30 07:06:19;;;;;;;5.10;2.63;;;;;;;19.19;47.98;101503.25;5077476;28;20048;-48
2022/05/30 07:08:46;;;;;;;7.35;3.10;;;;;;;19.20;47.59;101504.94;5076164;28;20119;-50
2022/05/30 07:11:18;;;;;;;5.05;2.88;;;;;;;19.21;47.47;101505.78;5077949;28;20187;-48
2022/05/30 07:13:45;;;;;;;5.20;2.88;;;;;;;19.21;47.86;101505.78;5076835;28;20051;-48
2022/05/30 07:16:13;;;;;;;6.90;2.92;;;;;;;19.21;47.09;101506.63;5075446;28;20041;-50
2022/05/30 07:18:40;;;;;;;4.63;2.50;;;;;;;19.21;47.31;101512.00;5078660;28;20072;-50
2022/05/30 07:21:09;;;;;;;4.97;2.60;;;;;;;19.22;47.64;101502.97;5075230;28;20056;-47
2022/05/30 07:23:37;;;;;;;4.22;2.08;;;;;;;19.22;47.26;101505.66;5064568;28;20488;-46
2022/05/30 07:26:08;;;;;;;6.18;2.45;;;;;;;19.23;47.90;101510.03;5076665;28;20128;-48
2022/05/30 07:28:35;;;;;;;4.93;2.25;;;;;;;19.24;47.44;101503.66;5076115;28;20404;-46
2022/05/30 07:31:10;;;;;;;6.32;2.20;;;;;;;19.26;47.56;101503.53;5078038;28;20123;-47
2022/05/30 07:33:40;;;;;;;5.40;2.72;;;;;;;19.28;47.12;101500.69;5080929;28;20056;-48
2022/05/30 07:36:14;;;;;;;4.95;2.55;;;;;;;19.29;46.91;101502.38;5076012;28;20367;-49
2022/05/30 07:38:42;;;;;;;4.72;2.67;;;;;;;19.30;47.29;101504.09;5076107;28;20470;-50
2022/05/30 07:41:09;;;;;;;3.85;2.22;;;;;;;19.30;47.42;101504.94;5077363;28;20048;-48
2022/05/30 07:43:36;;;;;;;5.90;2.20;;;;;;;19.31;47.46;101503.09;5073143;28;20049;-48
2022/05/30 07:46:06;;;;;;;3.50;1.98;;;;;;;19.33;47.62;101506.47;5074717;28;20056;-47
2022/05/30 07:48:33;;;;;;;4.85;2.38;;;;;;;19.34;47.27;101510.88;5080247;28;20036;-48
2022/05/30 07:51:00;;;;;;;3.67;2.05;;;;;;;19.34;47.63;101500.13;5076544;28;20167;-47
2022/05/30 07:53:28;;;;;;;4.07;1.98;;;;;;;19.35;47.70;101501.81;5076762;28;20056;-47
2022/05/30 07:55:55;;;;;;;4.63;2.17;;;;;;;19.35;47.20;101501.81;5077332;28;20067;-47
2022/05/30 07:58:21;;;;;;;3.97;1.95;;;;;;;19.36;47.43;101511.56;5076517;28;20040;-48
2022/05/30 08:00:49;;;;;;;5.10;2.10;;;;;;;19.36;47.09;101512.41;5078538;28;20059;-51
2022/05/30 08:03:16;;;;;;;3.42;2.03;;;;;;;19.36;47.13;101520.47;5072804;28;20057;-51
2022/05/30 08:05:43;;;;;;;3.55;1.80;;;;;;;19.36;46.63;101515.09;5083487;28;20048;-47
2022/05/30 08:08:10;;;;;;;3.97;1.77;;;;;;;19.36;47.04;101512.41;5078977;28;20036;-49
2022/05/30 08:10:37;;;;;;;3.67;2.13;;;;;;;19.37;47.13;101511.41;5079790;28;20041;-51
2022/05/30 08:13:04;;;;;;;3.35;1.90;;;;;;;19.36;47.19;101504.34;5078437;28;20214;-48
2022/05/30 08:15:31;;;;;;;4.20;2.08;;;;;;;19.37;47.51;101511.41;5076132;28;20040;-50
2022/05/30 08:17:59;;;;;;;4.03;1.70;;;;;;;19.37;47.46;101511.41;5080517;28;20122;-48
2022/05/30 08:20:29;;;;;;;4.05;1.92;;;;;;;19.38;46.99;101513.13;5079468;28;20045;-53
2022/05/30 08:22:56;;;;;;;3.83;1.90;;;;;;;19.39;47.15;101517.50;5080253;28;20110;-49
2022/05/30 08:25:23;;;;;;;2.55;1.60;;;;;;;19.40;47.10;101512.97;5081889;28;20050;-47
2022/05/30 08:27:49;;;;;;;5.10;2.00;;;;;;;19.41;47.51;101512.81;5080701;28;20140;-49
2022/05/30 08:30:19;;;;;;;4.10;1.98;;;;;;;19.41;47.71;101517.34;5078984;28;20120;-49
2022/05/30 08:32:47;;;;;;;3.47;1.83;;;;;;;19.42;47.39;101506.47;5078881;28;20048;-50
2022/05/30 08:35:17;;;;;;;3.25;1.70;;;;;;;19.44;47.49;101511.66;5079413;28;20091;-49
2022/05/30 08:37:45;;;;;;;3.97;1.90;;;;;;;19.44;47.48;101519.75;5080838;28;20119;-49
2022/05/30 08:43:12;;;;;;;3.72;1.70;;;;;;;19.46;46.86;101532.06;5077342;28;20071;-52
2022/05/30 08:45:39;;;;;;;2.78;1.60;;;;;;;19.48;47.28;101530.06;5080572;28;20059;-49
2022/05/30 08:48:12;;;;;;;3.25;1.58;;;;;;;19.47;47.37;101532.91;5079247;28;20438;-50
2022/05/30 08:50:47;;;;;;;3.10;1.57;;;;;;;19.49;47.29;101528.19;5078122;28;20075;-50
2022/05/30 08:53:41;;;;;;;6.40;2.40;;;;;;;19.48;47.47;101529.22;5076523;28;20108;-48
2022/05/30 08:56:33;;;;;;;7.45;3.08;;;;;;;19.52;46.93;101537.81;5078839;28;20048;-51
2022/05/30 08:59:18;;;;;;;12.85;3.30;;;;;;;19.52;47.04;101535.13;5079259;28;20080;-50
2022/05/30 09:01:59;;;;;;;12.32;4.07;;;;;;;19.53;47.05;101539.50;5080425;28;21414;-50
2022/05/30 09:04:33;;;;;;;20.45;4.25;;;;;;;19.54;47.24;101544.78;5076411;28;20040;-49
2022/05/30 09:07:14;;;;;;;19.77;4.78;;;;;;;19.54;47.04;101539.38;5079822;28;20044;-46
2022/05/30 09:09:55;;;;;;;16.67;3.65;;;;;;;19.56;47.29;101537.38;5083429;28;20052;-49
2022/05/30 09:12:31;;;;;;;12.32;4.15;;;;;;;19.57;47.78;101543.59;5077468;28;20123;-47
2022/05/30 09:15:03;;;;;;;38.38;4.70;;;;;;;19.57;46.96;101533.69;5079189;28;20055;-49
2022/05/30 09:17:39;;;;;;;15.68;4.22;;;;;;;19.57;47.22;101533.69;5075080;28;21413;-51
2022/05/30 09:20:10;;;;;;;12.02;3.42;;;;;;;19.59;46.82;101537.09;5076453;28;20382;-48
2022/05/30 09:22:38;;;;;;;17.35;4.57;;;;;;;19.60;47.37;101538.78;5079598;28;20215;-49
2022/05/30 09:27:54;;;;;;;11.65;3.15;;;;;;;19.62;47.43;101534.16;5079310;28;20162;-48
2022/05/30 09:30:30;;;;;;;18.00;3.72;;;;;;;19.64;47.01;101532.16;5076951;28;20068;-51
2022/05/30 09:33:15;;;;;;;11.07;3.05;;;;;;;19.66;46.67;101534.72;5078420;28;20122;-50
2022/05/30 09:35:42;;;;;;;8.93;2.88;;;;;;;19.68;47.01;101535.41;5080823;28;20889;-49
2022/05/30 09:38:21;;;;;;;10.85;2.80;;;;;;;19.69;47.32;101529.00;5077760;28;20135;-48
2022/05/30 09:40:54;;;;;;;11.00;3.20;;;;;;;19.69;47.52;101535.22;5079859;28;20162;-51
2022/05/30 09:43:28;;;;;;;8.93;3.08;;;;;;;19.72;47.28;101539.47;5079004;28;20059;-51
2022/05/30 09:45:55;;;;;;;6.05;2.20;;;;;;;19.71;46.83;101535.94;5078287;28;20135;-50
2022/05/30 09:48:23;;;;;;;8.57;2.97;;;;;;;19.73;47.24;101547.41;5076616;28;20040;-51
2022/05/30 09:50:53;;;;;;;7.10;2.40;;;;;;;19.75;47.36;101532.97;5078958;28;20036;-49
2022/05/30 09:53:43;;;;;;;5.20;2.58;;;;;;;19.75;46.73;101543.72;5077524;28;20051;-50
2022/05/30 09:56:14;;;;;;;6.50;2.65;;;;;;;19.77;46.87;101544.41;5074459;28;20040;-51
2022/05/30 09:59:11;;;;;;;6.65;2.40;;;;;;;19.76;47.01;101543.56;5077494;28;20052;-47
2022/05/30 10:01:37;;;;;;;7.97;2.60;;;;;;;19.78;46.79;101546.97;5075386;28;20044;-49
2022/05/30 10:04:15;;;;;;;5.95;2.15;;;;;;;19.79;46.63;101547.81;5075832;28;20048;-50
2022/05/30 10:06:42;;;;;;;4.95;1.80;;;;;;;19.79;46.80;101548.66;5078801;28;20041;-47
2022/05/30 10:09:13;;;;;;;4.18;2.00;;;;;;;19.79;46.79;101550.50;5075290;28;20412;-50
2022/05/30 10:11:40;;;;;;;3.75;1.80;;;;;;;19.80;47.14;101538.75;5075333;28;20384;-49
2022/05/30 10:14:22;;;;;;;4.15;1.45;;;;;;;19.80;46.85;101549.50;5075134;28;20045;-50
2022/05/30 10:16:51;;;;;;;6.47;1.85;;;;;;;19.81;46.32;101549.34;5075293;28;20131;-50
2022/05/30 10:19:28;;;;;;;4.90;1.83;;;;;;;19.82;46.49;101555.56;5075130;28;20131;-49
2022/05/30 10:30:58;;;;;;;6.15;2.17;;;;;;;19.83;46.97;101555.44;5081870;28;20420;-51
2022/05/30 10:33:33;;;;;;;5.65;1.88;;;;;;;19.85;46.82;101552.59;5075086;28;20040;-47
2022/05/30 10:36:24;;;;;;;6.28;2.08;;;;;;;19.84;46.35;101556.28;5074711;28;20055;-51
2022/05/30 10:39:13;;;;;;;3.95;1.55;;;;;;;19.84;46.23;101558.97;5079899;28;20309;-49
2022/05/30 10:42:00;;;;;;;4.32;1.75;;;;;;;19.85;46.87;101547.22;5077084;28;20048;-51
2022/05/30 10:44:35;;;;;;;3.80;1.50;;;;;;;19.87;46.63;101550.63;5076950;28;20138;-49
2022/05/30 10:47:21;;;;;;;3.92;1.50;;;;;;;19.86;46.13;101549.78;5076605;28;20051;-48
2022/05/30 10:49:57;;;;;;;3.15;1.50;;;;;;;19.88;46.25;101552.31;5077865;28;20147;-48
2022/05/30 10:52:32;;;;;;;3.35;1.77;;;;;;;19.89;46.26;101562.06;5075152;28;20066;-47
2022/05/30 10:55:06;;;;;;;3.63;1.48;;;;;;;19.89;46.85;101562.91;5080957;28;20177;-50
2022/05/30 10:57:55;;;;;;;3.65;1.52;;;;;;;19.90;46.96;101561.06;5077788;28;20064;-50
2022/05/30 11:00:28;;;;;;;3.80;1.42;;;;;;;19.92;46.39;101556.38;5078974;28;20772;-48
2022/05/30 11:03:11;;;;;;;3.75;1.35;;;;;;;19.95;46.40;101558.78;5074798;28;20044;-51
2022/05/30 11:05:51;;;;;;;3.17;1.50;;;;;;;19.94;46.76;101551.72;5077143;28;20059;-51
2022/05/30 11:08:27;;;;;;;4.20;1.45;;;;;;;19.96;46.17;101557.78;5081362;28;20134;-49
2022/05/30 11:10:59;;;;;;;2.78;1.40;;;;;;;19.97;47.00;101554.09;5079686;28;20052;-52
2022/05/30 11:13:52;;;;;;;4.03;1.70;;;;;;;19.97;46.94;101554.94;5075609;28;20048;-53
2022/05/30 11:16:34;;;;;;;3.50;1.50;;;;;;;19.99;46.97;101552.13;5079255;28;20131;-52
2022/05/30 11:19:25;;;;;;;4.03;1.27;;;;;;;20.01;46.22;101560.88;5075756;28;20040;-51
2022/05/30 11:22:05;;;;;;;5.18;1.33;;;;;;;20.01;46.32;101552.78;5076939;28;20056;-51
2022/05/30 11:24:33;;;;;;;3.13;1.40;;;;;;;20.04;46.54;101565.13;5080422;28;20044;-51
2022/05/30 11:27:13;;;;;;;4.93;1.40;;;;;;;20.04;46.25;101562.44;5084265;28;20040;-48
2022/05/30 11:30:06;;;;;;;2.63;1.10;;;;;;;20.03;46.29;101561.59;5082214;28;20127;-52
2022/05/30 11:33:10;;;;;;;2.25;1.20;;;;;;;20.04;46.37;101563.28;5077196;28;20372;-50
2022/05/30 11:35:43;;;;;;;1.93;1.13;;;;;;;20.06;46.22;101558.59;5074857;28;20052;-49
2022/05/30 11:38:29;;;;;;;2.42;1.10;;;;;;;20.06;46.25;101560.41;5078048;28;20048;-50
2022/05/30 11:41:25;;;;;;;3.78;1.13;;;;;;;20.06;46.53;101561.28;5084761;28;20151;-51
2022/05/30 11:44:08;;;;;;;1.63;1.02;;;;;;;20.06;46.74;101561.28;5086637;28;20296;-48
2022/05/30 11:46:55;;;;;;;3.90;0.93;;;;;;;20.07;46.05;101560.28;5084681;28;20419;-50
2022/05/30 11:49:54;;;;;;;5.88;1.30;;;;;;;20.07;46.51;101562.97;5083939;28;20505;-48
2022/05/30 11:52:34;;;;;;;6.00;1.00;;;;;;;20.07;46.58;101568.34;5075881;28;20048;-49
2022/05/30 11:55:26;;;;;;;3.30;1.55;;;;;;;20.08;46.67;101563.81;5083520;28;20051;-51
2022/05/30 11:58:10;;;;;;;3.88;1.10;;;;;;;20.08;46.18;101561.97;5080393;28;20052;-49
2022/05/30 12:00:47;;;;;;;4.32;1.33;;;;;;;20.09;46.44;101563.66;5082988;28;20074;-50